createdAt,value
2023-08-11T00:01:52.254Z,98786.28
2023-08-11T00:04:52.966Z,98783.72
2023-08-11T00:07:22.961Z,98780.47
2023-08-11T00:09:55.617Z,98787.41
2023-08-11T00:18:17.136Z,98778.97
2023-08-11T00:20:47.368Z,98779.81
2023-08-11T00:23:25.628Z,98780.66
2023-08-11T00:26:01.883Z,98783.34
2023-08-11T00:28:36.507Z,98779.09
2023-08-11T00:33:53.618Z,98794.66
2023-08-11T00:36:29.573Z,98794.59
2023-08-11T00:39:09.167Z,98795.38
2023-08-11T00:41:41.787Z,98792.69
2023-08-11T00:44:11.589Z,98799.66
2023-08-11T00:46:55.767Z,98797.91
2023-08-11T00:49:31.773Z,98802.50
2023-08-11T00:52:08.360Z,98800.91
2023-08-11T00:54:38.365Z,98800.16
2023-08-11T00:57:22.079Z,98796.00
2023-08-11T00:59:54.526Z,98792.69
2023-08-11T01:05:24.102Z,98800.47
2023-08-11T01:11:40.648Z,98802.53
2023-08-11T01:14:46.382Z,98806.91
2023-08-11T01:17:30.604Z,98805.25
2023-08-11T01:20:03.537Z,98802.69
2023-08-11T01:22:47.851Z,98803.53
2023-08-11T01:25:23.060Z,98797.56
2023-08-11T01:28:06.805Z,98803.66
2023-08-11T01:33:32.093Z,98796.75
2023-08-11T01:36:07.913Z,98791.72
2023-08-11T01:38:56.531Z,98791.88
2023-08-11T01:41:50.728Z,98795.44
2023-08-11T01:45:17.543Z,98799.75
2023-08-11T01:47:57.734Z,98793.66
2023-08-11T01:50:31.838Z,98793.78
2023-08-11T01:53:06.274Z,98799.84
2023-08-11T01:56:02.624Z,98799.81
2023-08-11T01:58:34.557Z,98800.59
2023-08-11T02:01:10.620Z,98798.81
2023-08-11T02:03:45.166Z,98796.19
2023-08-11T02:06:37.822Z,98796.31
2023-08-11T02:09:27.372Z,98804.31
2023-08-11T02:11:56.553Z,98794.91
2023-08-11T02:14:27.657Z,98794.09
2023-08-11T02:16:57.946Z,98794.09
2023-08-11T02:19:30.262Z,98796.78
2023-08-11T02:21:58.547Z,98796.91
2023-08-11T02:24:42.378Z,98800.47
2023-08-11T02:27:18.181Z,98795.50
2023-08-11T02:29:50.548Z,98795.50
2023-08-11T02:32:27.454Z,98798.09
2023-08-11T02:35:03.304Z,98805.00
2023-08-11T02:37:39.203Z,98804.94
2023-08-11T02:40:15.840Z,98800.03
2023-08-11T02:43:04.778Z,98801.81
2023-08-11T02:45:34.238Z,98805.25
2023-08-11T02:48:01.179Z,98795.13
2023-08-11T02:50:41.748Z,98801.97
2023-08-11T02:53:16.119Z,98789.88
2023-08-11T02:55:45.070Z,98800.22
2023-08-11T02:58:20.895Z,98793.38
2023-08-11T03:00:58.016Z,98789.91
2023-08-11T03:03:32.950Z,98803.72
2023-08-11T03:06:20.033Z,98798.66
2023-08-11T03:08:51.919Z,98803.88
2023-08-11T03:11:24.687Z,98807.34
2023-08-11T03:13:57.759Z,98807.38
2023-08-11T03:16:30.502Z,98809.00
2023-08-11T03:19:03.831Z,98805.44
2023-08-11T03:21:46.876Z,98814.16
2023-08-11T03:24:17.506Z,98804.72
2023-08-11T03:26:46.790Z,98805.63
2023-08-11T03:29:15.515Z,98805.75
2023-08-11T03:31:43.812Z,98804.00
2023-08-11T03:34:17.667Z,98806.66
2023-08-11T03:36:50.143Z,98809.38
2023-08-11T03:39:17.775Z,98812.03
2023-08-11T03:41:46.777Z,98811.25
2023-08-11T03:44:16.354Z,98805.25
2023-08-11T03:46:50.070Z,98808.81
2023-08-11T03:52:18.685Z,98819.00
2023-08-11T03:54:58.547Z,98815.50
2023-08-11T03:57:27.566Z,98817.22
2023-08-11T04:00:07.548Z,98816.34
2023-08-11T04:02:42.163Z,98812.88
2023-08-11T04:05:16.921Z,98812.81
2023-08-11T04:07:46.382Z,98812.84
2023-08-11T04:10:19.360Z,98813.72
2023-08-11T04:12:51.011Z,98809.31
2023-08-11T04:15:21.733Z,98814.47
2023-08-11T04:17:56.092Z,98817.78
2023-08-11T04:20:36.425Z,98814.97
2023-08-11T04:23:08.244Z,98816.47
2023-08-11T04:25:45.420Z,98820.94
2023-08-11T04:30:55.355Z,98824.00
2023-08-11T04:33:30.305Z,98827.38
2023-08-11T04:38:44.586Z,98823.94
2023-08-11T04:41:18.871Z,98821.72
2023-08-11T04:44:00.809Z,98822.06
2023-08-11T04:46:48.762Z,98827.19
2023-08-11T04:49:16.764Z,98825.94
2023-08-11T04:51:43.290Z,98823.56
2023-08-11T04:54:11.536Z,98826.84
2023-08-11T04:56:38.734Z,98838.94
2023-08-11T04:59:06.178Z,98833.78
2023-08-11T05:01:36.240Z,98835.28
2023-08-11T05:04:03.850Z,98835.44
2023-08-11T05:09:56.739Z,98832.13
2023-08-11T05:12:31.149Z,98840.44
2023-08-11T05:15:08.005Z,98836.31
2023-08-11T05:17:40.557Z,98845.44
2023-08-11T05:20:19.757Z,98833.59
2023-08-11T05:22:53.629Z,98837.34
2023-08-11T05:25:36.837Z,98844.66
2023-08-11T05:28:09.365Z,98845.59
2023-08-11T05:30:54.343Z,98846.22
2023-08-11T05:33:31.837Z,98839.53
2023-08-11T05:35:58.399Z,98839.47
2023-08-11T05:38:24.866Z,98842.00
2023-08-11T05:41:02.117Z,98841.19
2023-08-11T05:43:31.981Z,98841.41
2023-08-11T05:46:13.686Z,98836.72
2023-08-11T05:48:48.375Z,98840.31
2023-08-11T05:51:20.578Z,98838.56
2023-08-11T05:54:00.372Z,98844.00
2023-08-11T05:56:47.500Z,98838.75
2023-08-11T05:59:28.034Z,98836.34
2023-08-11T06:01:54.804Z,98834.22
2023-08-11T06:04:21.515Z,98837.53
2023-08-11T06:06:48.196Z,98842.44
2023-08-11T06:09:15.184Z,98833.34
2023-08-11T06:11:44.608Z,98833.47
2023-08-11T06:14:11.311Z,98839.81
2023-08-11T06:16:37.952Z,98849.13
2023-08-11T06:19:04.708Z,98847.38
2023-08-11T06:21:34.629Z,98843.94
2023-08-11T06:24:01.440Z,98838.88
2023-08-11T06:26:28.087Z,98843.88
2023-08-11T06:28:54.609Z,98853.22
2023-08-11T06:31:30.003Z,98853.88
2023-08-11T06:33:58.734Z,98852.22
2023-08-11T06:36:37.171Z,98849.81
2023-08-11T06:41:55.524Z,98852.38
2023-08-11T06:44:30.180Z,98854.00
2023-08-11T06:46:59.522Z,98858.78
2023-08-11T06:49:29.310Z,98854.88
2023-08-11T06:51:57.664Z,98865.88
2023-08-11T06:54:44.167Z,98855.69
2023-08-11T06:57:13.650Z,98861.00
2023-08-11T07:00:02.646Z,98858.75
2023-08-11T07:02:31.901Z,98860.28
2023-08-11T07:05:01.661Z,98863.16
2023-08-11T07:07:31.262Z,98855.00
2023-08-11T07:10:03.739Z,98874.94
2023-08-11T07:12:34.155Z,98874.16
2023-08-11T07:15:01.344Z,98864.06
2023-08-11T07:17:28.512Z,98861.56
2023-08-11T07:19:55.534Z,98865.16
2023-08-11T07:22:24.381Z,98865.09
2023-08-11T07:24:52.362Z,98860.50
2023-08-11T07:27:19.565Z,98869.72
2023-08-11T07:29:46.581Z,98864.63
2023-08-11T07:32:13.305Z,98874.03
2023-08-11T07:34:41.131Z,98872.66
2023-08-11T07:37:08.200Z,98876.72
2023-08-11T07:39:37.373Z,98871.97
2023-08-11T07:42:04.352Z,98875.81
2023-08-11T07:44:36.878Z,98874.47
2023-08-11T07:47:04.031Z,98876.28
2023-08-11T07:49:30.800Z,98878.66
2023-08-11T07:51:58.565Z,98881.69
2023-08-11T07:54:29.106Z,98883.03
2023-08-11T07:56:55.781Z,98878.88
2023-08-11T07:59:22.694Z,98876.38
2023-08-11T08:01:49.684Z,98881.06
2023-08-11T08:04:23.671Z,98880.72
2023-08-11T08:06:50.313Z,98883.16
2023-08-11T08:09:16.972Z,98885.47
2023-08-11T08:11:47.483Z,98895.78
2023-08-11T08:14:15.017Z,98891.81
2023-08-11T08:16:50.975Z,98890.25
2023-08-11T08:19:18.387Z,98891.59
2023-08-11T08:21:45.204Z,98883.44
2023-08-11T08:24:12.431Z,98887.41
2023-08-11T08:26:41.767Z,98885.41
2023-08-11T08:29:08.632Z,98887.97
2023-08-11T08:31:40.343Z,98882.97
2023-08-11T08:34:07.317Z,98888.66
2023-08-11T08:36:50.592Z,98896.44
2023-08-11T08:39:17.162Z,98899.94
2023-08-11T08:42:18.504Z,98899.31
2023-08-11T08:45:04.729Z,98893.16
2023-08-11T08:47:38.245Z,98889.59
2023-08-11T08:52:57.219Z,98894.94
2023-08-11T08:55:31.627Z,98886.84
2023-08-11T08:57:58.407Z,98890.28
2023-08-11T09:00:25.007Z,98886.75
2023-08-11T09:03:01.769Z,98890.56
2023-08-11T09:05:34.774Z,98882.88
2023-08-11T09:08:11.946Z,98886.16
2023-08-11T09:10:42.518Z,98884.34
2023-08-11T09:13:09.645Z,98888.41
2023-08-11T09:15:40.249Z,98880.22
2023-08-11T09:18:13.573Z,98886.22
2023-08-11T09:23:37.408Z,98880.09
2023-08-11T09:26:10.437Z,98872.03
2023-08-11T09:28:48.059Z,98873.19
2023-08-11T09:31:14.572Z,98869.31
2023-08-11T09:33:42.808Z,98866.91
2023-08-11T09:36:12.728Z,98869.09
2023-08-11T09:38:43.999Z,98860.97
2023-08-11T09:41:24.866Z,98863.72
2023-08-11T09:43:55.446Z,98864.72
2023-08-11T09:46:29.427Z,98855.28
2023-08-11T09:48:56.475Z,98872.38
2023-08-11T09:51:37.448Z,98868.84
2023-08-11T09:54:08.548Z,98867.03
2023-08-11T09:56:45.271Z,98857.47
2023-08-11T09:59:22.024Z,98861.50
2023-08-11T10:01:51.439Z,98850.72
2023-08-11T10:04:45.809Z,98859.09
2023-08-11T10:07:17.500Z,98853.97
2023-08-11T10:09:50.047Z,98853.56
2023-08-11T10:12:17.423Z,98851.88
2023-08-11T10:14:47.385Z,98857.69
2023-08-11T10:17:14.820Z,98853.81
2023-08-11T10:19:41.530Z,98849.78
2023-08-11T10:22:19.118Z,98850.94
2023-08-11T10:24:48.172Z,98847.16
2023-08-11T10:27:18.770Z,98849.25
2023-08-11T10:29:49.375Z,98845.88
2023-08-11T10:32:16.289Z,98847.56
2023-08-11T10:34:46.923Z,98849.66
2023-08-11T10:37:15.987Z,98855.66
2023-08-11T10:40:12.104Z,98843.69
2023-08-11T10:42:42.570Z,98839.25
2023-08-11T10:45:16.892Z,98841.38
2023-08-11T10:48:03.069Z,98843.53
2023-08-11T14:15:45.382Z,98739.41
2023-08-11T14:18:31.201Z,98741.50
2023-08-11T14:21:32.241Z,98738.59
2023-08-11T15:00:22.983Z,98733.72
2023-08-11T15:03:24.746Z,98735.75
2023-08-11T15:06:21.066Z,98732.31
2023-08-11T15:09:21.941Z,98731.44
2023-08-11T15:12:21.162Z,98724.06
2023-08-11T15:18:38.940Z,98732.91
2023-08-11T15:21:21.062Z,98728.19
2023-08-11T15:24:04.785Z,98727.63
2023-08-11T15:26:54.641Z,98720.66
2023-08-11T15:29:57.014Z,98718.13
2023-08-11T15:36:30.723Z,98707.69
2023-08-11T15:43:02.604Z,98702.53
2023-08-11T15:45:33.533Z,98698.91
2023-08-11T15:48:44.001Z,98697.47
2023-08-11T15:51:18.650Z,98685.75
2023-08-11T15:53:54.535Z,98689.69
2023-08-11T15:57:08.027Z,98689.28
2023-08-11T16:01:22.365Z,98684.56
2023-08-11T16:03:20.123Z,98686.22
2023-08-11T16:05:59.945Z,98684.97
2023-08-11T16:12:08.074Z,98671.63
2023-08-11T16:14:45.529Z,98671.91
2023-08-11T16:17:15.438Z,98669.97
2023-08-11T16:19:45.133Z,98673.88
2023-08-11T16:22:35.115Z,98674.28
2023-08-11T16:25:05.133Z,98671.66
2023-08-11T16:34:32.519Z,98655.50
2023-08-11T16:40:18.518Z,98654.41
2023-08-11T16:44:18.386Z,98658.84
2023-08-11T16:47:01.394Z,98658.56
2023-08-11T16:49:53.124Z,98652.72
2023-08-11T16:52:44.651Z,98649.38
2023-08-11T16:55:11.350Z,98643.09
2023-08-11T16:57:38.669Z,98625.44
2023-08-11T17:00:11.810Z,98621.25
2023-08-11T17:02:38.451Z,98629.72
2023-08-11T17:05:05.617Z,98629.63
2023-08-11T17:07:32.834Z,98633.28
2023-08-11T17:10:05.583Z,98638.41
2023-08-11T17:12:33.853Z,98637.16
2023-08-11T17:15:00.866Z,98634.13
2023-08-11T17:17:32.274Z,98637.44
2023-08-11T17:19:59.018Z,98640.38
2023-08-11T17:22:27.243Z,98635.22
2023-08-11T17:25:02.462Z,98637.00
2023-08-11T17:27:32.004Z,98633.69
2023-08-11T17:30:01.734Z,98638.97
2023-08-11T17:32:28.843Z,98642.72
2023-08-11T17:35:00.028Z,98643.59
2023-08-11T17:37:27.346Z,98637.81
2023-08-11T17:40:02.783Z,98639.38
2023-08-11T17:42:31.923Z,98641.16
2023-08-11T17:47:46.178Z,98638.50
2023-08-11T17:50:27.016Z,98638.75
2023-08-11T17:52:53.850Z,98636.09
2023-08-11T17:55:37.704Z,98640.09
2023-08-11T17:58:12.250Z,98638.66
2023-08-11T18:00:44.638Z,98635.41
2023-08-11T18:03:18.926Z,98640.44
2023-08-11T18:06:07.927Z,98633.47
2023-08-11T18:08:58.877Z,98629.38
2023-08-11T18:11:37.639Z,98630.66
2023-08-11T18:14:07.545Z,98626.19
2023-08-11T18:16:35.731Z,98628.13
2023-08-11T18:19:10.550Z,98630.19
2023-08-11T18:21:48.954Z,98645.94
2023-08-11T18:24:18.389Z,98638.75
2023-08-11T18:26:44.931Z,98647.50
2023-08-11T18:29:11.710Z,98646.94
2023-08-11T18:31:38.337Z,98644.81
2023-08-11T18:34:05.117Z,98651.91
2023-08-11T18:36:34.501Z,98654.91
2023-08-11T18:39:01.194Z,98657.00
2023-08-11T18:41:27.673Z,98660.84
2023-08-11T18:43:54.208Z,98658.00
2023-08-11T18:46:20.773Z,98651.78
2023-08-11T18:48:49.588Z,98646.34
2023-08-11T18:51:18.624Z,98652.19
2023-08-11T18:53:45.312Z,98658.72
2023-08-11T18:56:12.461Z,98651.16
2023-08-11T18:58:39.261Z,98646.69
2023-08-11T19:01:09.184Z,98648.91
2023-08-11T19:03:38.238Z,98642.13
2023-08-11T19:06:05.792Z,98643.09
2023-08-11T19:08:32.585Z,98648.88
2023-08-11T19:11:08.219Z,98639.06
2023-08-11T19:13:46.360Z,98639.81
2023-08-11T19:16:17.370Z,98639.19
2023-08-11T19:18:52.844Z,98646.44
2023-08-11T19:21:22.522Z,98642.03
2023-08-11T19:23:55.618Z,98646.78
2023-08-11T19:26:24.475Z,98644.28
2023-08-11T19:28:51.202Z,98651.63
2023-08-11T19:31:18.113Z,98651.72
2023-08-11T19:33:47.407Z,98656.16
2023-08-11T19:36:15.446Z,98647.53
2023-08-11T19:38:45.801Z,98652.72
2023-08-11T19:41:13.842Z,98651.69
2023-08-11T19:43:43.707Z,98654.31
2023-08-11T19:46:14.920Z,98655.59
2023-08-11T19:48:41.659Z,98653.28
2023-08-11T19:51:14.413Z,98648.34
2023-08-11T19:53:48.520Z,98647.19
2023-08-11T19:56:15.390Z,98646.22
2023-08-11T19:58:44.857Z,98635.44
2023-08-11T20:01:13.619Z,98637.00
2023-08-11T20:03:40.698Z,98637.91
2023-08-11T20:06:09.668Z,98638.56
2023-08-11T20:08:46.018Z,98638.34
2023-08-11T20:11:15.434Z,98636.56
2023-08-11T20:13:42.346Z,98634.31
2023-08-11T20:16:09.926Z,98631.19
2023-08-11T20:18:36.433Z,98632.00
2023-08-11T20:21:03.174Z,98628.00
2023-08-11T20:23:29.699Z,98634.31
2023-08-11T20:25:56.187Z,98630.09
2023-08-11T20:28:26.231Z,98623.28
2023-08-11T20:30:52.978Z,98625.81
2023-08-11T20:33:19.765Z,98630.84
2023-08-11T20:35:48.644Z,98626.34
2023-08-11T20:38:18.056Z,98629.59
2023-08-11T20:40:48.080Z,98628.75
2023-08-11T20:43:17.886Z,98626.75
2023-08-11T20:45:52.574Z,98629.06
2023-08-11T20:48:20.499Z,98629.22
2023-08-11T20:50:51.143Z,98628.50
2023-08-11T20:53:19.058Z,98629.66
2023-08-11T20:55:45.705Z,98616.13
2023-08-11T20:58:12.468Z,98614.13
2023-08-11T21:00:45.618Z,98617.41
2023-08-11T21:03:14.563Z,98611.72
2023-08-11T21:05:42.546Z,98610.88
2023-08-11T21:08:14.380Z,98611.50
2023-08-11T21:10:42.600Z,98616.53
2023-08-11T21:13:09.139Z,98612.75
2023-08-11T21:15:40.880Z,98615.38
2023-08-11T21:18:09.675Z,98619.69
2023-08-11T21:20:40.760Z,98615.91
2023-08-11T21:23:09.969Z,98619.28
2023-08-11T21:25:36.839Z,98616.13
2023-08-11T21:28:05.600Z,98616.88
2023-08-11T21:30:46.633Z,98612.97
2023-08-11T21:33:16.531Z,98614.34
2023-08-11T21:35:45.870Z,98614.88
2023-08-11T21:38:16.553Z,98612.38
2023-08-11T21:40:43.627Z,98612.16
2023-08-11T21:43:14.534Z,98611.50
2023-08-11T21:45:43.309Z,98618.75
2023-08-11T21:48:12.695Z,98618.53
2023-08-11T21:50:44.882Z,98613.91
2023-08-11T21:53:22.306Z,98615.16
2023-08-11T21:58:33.722Z,98615.06
2023-08-11T22:01:01.788Z,98611.72
2023-08-11T22:03:31.271Z,98618.88
2023-08-11T22:06:00.587Z,98611.94
2023-08-11T22:08:27.493Z,98618.03
2023-08-11T22:11:33.898Z,98617.91
2023-08-11T22:17:10.086Z,98631.81
2023-08-11T22:19:46.969Z,98622.78
2023-08-11T22:22:20.733Z,98624.78
2023-08-11T22:24:50.232Z,98626.75
2023-08-11T22:27:23.669Z,98623.06
2023-08-11T22:29:57.697Z,98620.47
2023-08-11T22:32:32.486Z,98626.75
2023-08-11T22:35:11.841Z,98626.09
2023-08-11T22:37:51.918Z,98624.69
2023-08-11T22:40:30.394Z,98624.91
2023-08-11T22:42:58.960Z,98625.94
2023-08-11T22:45:44.391Z,98617.97
2023-08-11T22:48:22.474Z,98626.03
2023-08-11T22:53:52.033Z,98618.25
2023-08-11T22:56:39.604Z,98619.19
2023-08-11T22:59:08.595Z,98617.50
2023-08-11T23:01:41.313Z,98617.59
2023-08-11T23:04:13.299Z,98617.16
2023-08-11T23:06:40.165Z,98617.91
2023-08-11T23:09:21.073Z,98612.56
2023-08-11T23:11:51.127Z,98612.47
2023-08-11T23:14:27.883Z,98611.53
2023-08-11T23:16:57.992Z,98616.78
2023-08-11T23:19:49.782Z,98616.09
2023-08-11T23:22:16.409Z,98613.88
2023-08-11T23:24:47.089Z,98613.16
2023-08-11T23:27:19.861Z,98614.81
2023-08-11T23:29:49.749Z,98615.78
2023-08-11T23:32:17.989Z,98618.28
2023-08-11T23:34:50.182Z,98609.88
2023-08-11T23:37:24.981Z,98614.78
2023-08-11T23:40:02.979Z,98618.16
2023-08-11T23:42:56.240Z,98611.81
2023-08-11T23:45:27.613Z,98607.88
2023-08-11T23:48:07.910Z,98609.69
